createdAt,value
2023-08-05T00:00:38.082Z,96649.28
2023-08-05T00:03:04.883Z,96685.72
2023-08-05T00:05:31.775Z,96645.28
2023-08-05T00:07:58.636Z,96668.69
2023-08-05T00:10:25.394Z,96680.25
2023-08-05T00:12:52.532Z,96662.84
2023-08-05T00:15:19.304Z,96671.97
2023-08-05T00:17:46.061Z,96633.47
2023-08-05T00:20:13.670Z,96658.09
2023-08-05T00:22:40.402Z,96628.00
2023-08-05T00:25:07.469Z,96663.41
2023-08-05T00:27:34.403Z,96644.00
2023-08-05T00:30:01.065Z,96656.28
2023-08-05T00:32:28.861Z,96656.25
2023-08-05T00:34:55.760Z,96659.41
2023-08-05T00:37:22.536Z,96668.44
2023-08-05T00:39:49.137Z,96636.00
2023-08-05T00:42:19.837Z,96630.06
2023-08-05T00:44:46.900Z,96653.00
2023-08-05T00:47:17.117Z,96599.03
2023-08-05T00:49:44.085Z,96611.34
2023-08-05T00:52:10.851Z,96622.84
2023-08-05T00:54:37.462Z,96637.44
2023-08-05T00:57:04.414Z,96629.94
2023-08-05T00:59:31.103Z,96590.69
2023-08-05T01:01:57.714Z,96622.38
2023-08-05T01:04:28.038Z,96590.75
2023-08-05T01:06:55.508Z,96599.53
2023-08-05T01:09:26.106Z,96601.41
2023-08-05T01:11:52.828Z,96608.13
2023-08-05T01:14:19.605Z,96612.84
2023-08-05T01:16:46.279Z,96604.88
2023-08-05T01:19:23.427Z,96613.53
2023-08-05T01:22:18.715Z,96603.19
2023-08-05T01:24:54.567Z,96598.50
2023-08-05T01:27:23.036Z,96594.53
2023-08-05T01:29:49.784Z,96578.63
2023-08-05T01:32:19.315Z,96577.03
2023-08-05T01:34:46.954Z,96585.66
2023-08-05T01:37:13.722Z,96563.88
2023-08-05T01:39:40.638Z,96579.34
2023-08-05T01:42:07.743Z,96571.03
2023-08-05T01:44:34.616Z,96568.34
2023-08-05T01:47:01.725Z,96584.13
2023-08-05T01:49:28.483Z,96568.72
2023-08-05T01:51:55.196Z,96564.41
2023-08-05T01:54:22.024Z,96592.59
2023-08-05T01:56:49.112Z,96589.84
2023-08-05T01:59:15.936Z,96592.22
2023-08-05T02:01:47.327Z,96567.59
2023-08-05T02:04:15.063Z,96587.53
2023-08-05T02:06:42.705Z,96580.44
2023-08-05T02:09:09.628Z,96578.06
2023-08-05T02:11:36.406Z,96564.84
2023-08-05T02:14:04.019Z,96579.56
2023-08-05T02:16:34.055Z,96584.28
2023-08-05T02:19:01.176Z,96579.88
2023-08-05T02:21:27.865Z,96564.31
2023-08-05T02:23:56.180Z,96580.16
2023-08-05T02:26:23.122Z,96564.22
2023-08-05T02:28:50.064Z,96570.59
2023-08-05T02:31:17.245Z,96566.56
2023-08-05T02:33:43.904Z,96541.97
2023-08-05T02:36:11.019Z,96547.09
2023-08-05T02:38:37.896Z,96527.53
2023-08-05T02:41:08.980Z,96564.91
2023-08-05T02:43:35.765Z,96554.13
2023-08-05T02:46:02.905Z,96564.81
2023-08-05T02:48:29.631Z,96552.91
2023-08-05T02:50:56.631Z,96535.84
2023-08-05T02:53:23.536Z,96542.03
2023-08-05T02:55:50.263Z,96557.50
2023-08-05T02:58:17.283Z,96547.19
2023-08-05T03:00:44.901Z,96562.16
2023-08-05T03:03:12.266Z,96561.41
2023-08-05T03:05:39.028Z,96567.25
2023-08-05T03:08:06.190Z,96558.16
2023-08-05T03:10:32.894Z,96540.69
2023-08-05T03:12:59.709Z,96548.94
2023-08-05T03:15:30.316Z,96541.34
2023-08-05T03:17:57.450Z,96549.66
2023-08-05T03:20:26.311Z,96553.28
2023-08-05T03:22:56.543Z,96548.50
2023-08-05T03:25:24.351Z,96543.34
2023-08-05T03:27:51.473Z,96547.63
2023-08-05T03:30:18.949Z,96522.59
2023-08-05T03:32:47.932Z,96543.69
2023-08-05T03:35:14.780Z,96541.91
2023-08-05T03:37:41.516Z,96553.44
2023-08-05T03:40:08.886Z,96566.69
2023-08-05T03:42:35.623Z,96565.97
2023-08-05T03:45:02.758Z,96558.94
2023-08-05T03:47:29.760Z,96574.03
2023-08-05T03:49:56.544Z,96570.09
2023-08-05T03:52:25.333Z,96559.50
2023-08-05T03:54:52.580Z,96557.59
2023-08-05T03:57:19.180Z,96571.88
2023-08-05T03:59:48.376Z,96591.75
2023-08-05T04:02:15.807Z,96583.88
2023-08-05T04:04:43.898Z,96572.50
2023-08-05T04:07:10.906Z,96577.00
2023-08-05T04:09:38.373Z,96569.41
2023-08-05T04:12:06.660Z,96574.69
2023-08-05T04:14:33.614Z,96554.06
2023-08-05T04:17:01.717Z,96581.41
2023-08-05T04:19:28.560Z,96589.81
2023-08-05T04:21:55.952Z,96581.94
2023-08-05T04:24:28.121Z,96549.44
2023-08-05T04:26:54.747Z,96564.22
2023-08-05T04:29:28.020Z,96568.59
2023-08-05T04:31:54.800Z,96555.09
2023-08-05T04:34:22.003Z,96574.94
2023-08-05T04:36:53.644Z,96578.91
2023-08-05T04:39:21.183Z,96544.34
2023-08-05T04:41:48.469Z,96569.00
2023-08-05T04:44:15.120Z,96582.16
2023-08-05T04:46:41.821Z,96595.94
2023-08-05T04:49:11.099Z,96590.94
2023-08-05T04:51:38.010Z,96590.16
2023-08-05T04:54:06.052Z,96584.31
2023-08-05T04:56:34.802Z,96580.03
2023-08-05T04:59:01.643Z,96579.28
2023-08-05T05:01:28.795Z,96579.31
2023-08-05T05:03:56.961Z,96570.69
2023-08-05T05:06:25.206Z,96563.53
2023-08-05T05:08:51.929Z,96559.59
2023-08-05T05:11:18.606Z,96570.34
2023-08-05T05:13:47.770Z,96587.41
2023-08-05T05:16:14.461Z,96556.63
2023-08-05T05:18:41.186Z,96565.44
2023-08-05T05:21:07.940Z,96569.88
2023-08-05T05:23:35.029Z,96561.25
2023-08-05T05:26:01.911Z,96545.94
2023-08-05T05:28:28.698Z,96555.63
2023-08-05T05:30:55.467Z,96537.88
2023-08-05T05:33:22.408Z,96513.81
2023-08-05T05:35:51.225Z,96558.22
2023-08-05T05:38:17.862Z,96556.69
2023-08-05T05:40:44.546Z,96563.44
2023-08-05T05:43:11.186Z,96529.44
2023-08-05T05:45:38.127Z,96552.03
2023-08-05T05:48:05.263Z,96560.75
2023-08-05T05:50:32.015Z,96560.75
2023-08-05T05:52:58.859Z,96556.44
2023-08-05T05:55:25.854Z,96545.78
2023-08-05T05:57:52.536Z,96521.69
2023-08-05T06:00:19.332Z,96524.91
2023-08-05T06:05:35.181Z,96519.38
2023-08-05T06:08:02.073Z,96533.25
2023-08-05T06:10:28.808Z,96509.13
2023-08-05T06:12:56.666Z,96533.69
2023-08-05T06:15:23.396Z,96519.03
2023-08-05T06:17:50.958Z,96511.16
2023-08-05T06:20:17.842Z,96501.66
2023-08-05T06:22:45.146Z,96510.75
2023-08-05T06:25:11.913Z,96515.13
2023-08-05T06:27:39.176Z,96532.91
2023-08-05T06:30:07.057Z,96521.03
2023-08-05T06:32:33.861Z,96530.88
2023-08-05T06:35:00.583Z,96507.16
2023-08-05T06:37:27.715Z,96524.50
2023-08-05T06:39:54.405Z,96516.53
2023-08-05T06:42:24.737Z,96506.19
2023-08-05T06:44:51.576Z,96501.31
2023-08-05T06:47:18.245Z,96529.69
2023-08-05T06:49:45.264Z,96505.88
2023-08-05T06:52:12.231Z,96519.47
2023-08-05T06:54:39.494Z,96542.66
2023-08-05T06:57:06.683Z,96521.00
2023-08-05T06:59:36.252Z,96522.66
2023-08-05T07:02:03.244Z,96514.06
2023-08-05T07:04:30.321Z,96513.78
2023-08-05T07:06:59.907Z,96488.22
2023-08-05T07:09:26.688Z,96505.56
2023-08-05T07:11:55.642Z,96521.59
2023-08-05T07:14:22.349Z,96503.28
2023-08-05T07:16:49.022Z,96491.81
2023-08-05T07:19:15.716Z,96505.94
2023-08-05T07:21:42.468Z,96465.56
2023-08-05T07:24:09.269Z,96510.81
2023-08-05T07:26:36.077Z,96498.13
2023-08-05T07:29:02.744Z,96487.56
2023-08-05T07:31:29.481Z,96508.75
2023-08-05T07:33:56.280Z,96501.72
2023-08-05T07:36:23.903Z,96493.22
2023-08-05T07:38:52.323Z,96507.56
2023-08-05T07:41:21.423Z,96503.34
2023-08-05T07:43:48.609Z,96505.03
2023-08-05T07:46:15.630Z,96508.19
2023-08-05T07:48:46.497Z,96473.97
2023-08-05T07:51:13.943Z,96500.16
2023-08-05T07:53:41.082Z,96475.19
2023-08-05T07:56:14.203Z,96492.41
2023-08-05T07:58:46.440Z,96491.81
2023-08-05T08:01:14.960Z,96459.63
2023-08-05T08:03:46.639Z,96492.06
2023-08-05T08:06:17.349Z,96489.69
2023-08-05T08:08:46.410Z,96490.72
2023-08-05T08:11:13.506Z,96487.13
2023-08-05T08:13:40.858Z,96477.81
2023-08-05T08:16:08.472Z,96480.50
2023-08-05T08:18:35.129Z,96496.41
2023-08-05T08:21:01.889Z,96498.56
2023-08-05T08:23:28.847Z,96484.34
2023-08-05T08:25:59.062Z,96493.22
2023-08-05T08:28:26.370Z,96464.19
2023-08-05T08:30:59.551Z,96484.00
2023-08-05T08:33:27.241Z,96468.97
2023-08-05T08:35:54.148Z,96487.78
2023-08-05T08:38:22.628Z,96483.75
2023-08-05T08:40:51.067Z,96475.47
2023-08-05T08:43:22.375Z,96478.81
2023-08-05T08:45:53.299Z,96476.34
2023-08-05T08:48:24.421Z,96470.97
2023-08-05T08:50:54.304Z,96456.16
2023-08-05T08:53:22.956Z,96470.75
2023-08-05T08:55:50.066Z,96467.28
2023-08-05T08:58:16.815Z,96464.44
2023-08-05T09:00:43.621Z,96484.16
2023-08-05T09:03:11.101Z,96470.72
2023-08-05T09:05:50.702Z,96483.53
2023-08-05T09:08:17.376Z,96465.69
2023-08-05T09:10:47.892Z,96485.22
2023-08-05T09:13:18.257Z,96466.06
2023-08-05T09:15:45.215Z,96475.56
2023-08-05T09:18:12.069Z,96475.59
2023-08-05T09:20:39.759Z,96467.84
2023-08-05T09:23:08.770Z,96463.38
2023-08-05T09:25:40.478Z,96446.25
2023-08-05T09:28:07.514Z,96457.22
2023-08-05T09:30:34.792Z,96458.09
2023-08-05T09:33:01.926Z,96461.16
2023-08-05T09:35:28.722Z,96440.88
2023-08-05T09:37:56.261Z,96443.13
2023-08-05T09:40:24.181Z,96454.53
2023-08-05T09:42:51.916Z,96442.59
2023-08-05T09:45:20.866Z,96440.97
2023-08-05T09:47:48.755Z,96443.44
2023-08-05T09:50:19.237Z,96434.38
2023-08-05T09:52:51.250Z,96427.59
2023-08-05T09:55:20.264Z,96437.81
2023-08-05T09:57:48.117Z,96431.16
2023-08-05T10:00:16.125Z,96436.06
2023-08-05T10:02:46.914Z,96425.44
2023-08-05T10:05:14.206Z,96445.16
2023-08-05T10:07:42.362Z,96450.47
2023-08-05T10:10:21.163Z,96426.59
2023-08-05T10:12:59.271Z,96439.16
2023-08-05T10:15:38.906Z,96432.31
2023-08-05T10:18:12.319Z,96425.28
2023-08-05T10:20:39.887Z,96402.69
2023-08-05T10:23:08.892Z,96406.66
2023-08-05T10:26:02.293Z,96427.19
2023-08-05T10:28:34.733Z,96431.84
2023-08-05T10:31:07.748Z,96428.97
2023-08-05T10:34:10.817Z,96426.97
2023-08-05T10:36:46.200Z,96417.19
2023-08-05T10:39:51.553Z,96425.16
2023-08-05T10:42:20.157Z,96403.16
2023-08-05T10:44:49.897Z,96413.47
2023-08-05T10:47:21.973Z,96403.44
2023-08-05T10:49:56.308Z,96400.38
2023-08-05T10:52:25.073Z,96390.44
2023-08-05T10:54:53.135Z,96378.19
2023-08-05T10:57:34.955Z,96388.44
2023-08-05T11:00:04.122Z,96390.59
2023-08-05T11:02:32.425Z,96377.44
2023-08-05T11:05:10.175Z,96379.91
2023-08-05T11:07:46.370Z,96399.53
2023-08-05T11:10:21.709Z,96371.63
2023-08-05T11:12:48.477Z,96387.97
2023-08-05T11:15:15.334Z,96389.16
2023-08-05T11:17:56.243Z,96363.56
2023-08-05T11:20:32.437Z,96379.34
2023-08-05T11:22:59.261Z,96370.66
2023-08-05T11:25:26.188Z,96350.50
2023-08-05T11:27:57.079Z,96358.31
2023-08-05T11:30:24.259Z,96374.38
2023-08-05T11:32:57.145Z,96382.31
2023-08-05T11:35:25.456Z,96332.69
2023-08-05T11:37:52.560Z,96349.47
2023-08-05T11:40:19.534Z,96316.84
2023-08-05T11:42:46.925Z,96342.09
2023-08-05T11:45:15.337Z,96357.63
2023-08-05T11:47:43.318Z,96340.47
2023-08-05T11:50:13.939Z,96369.13
2023-08-05T11:53:23.165Z,96354.88
2023-08-05T11:55:50.045Z,96317.44
2023-08-05T11:58:16.935Z,96334.91
2023-08-05T12:00:45.738Z,96321.28
2023-08-05T12:03:12.774Z,96318.38
2023-08-05T12:05:39.656Z,96335.50
2023-08-05T12:08:06.412Z,96346.84
2023-08-05T12:10:33.435Z,96312.81
2023-08-05T12:13:04.987Z,96325.47
2023-08-05T12:15:32.246Z,96347.28
2023-08-05T12:18:08.045Z,96300.97
2023-08-05T12:20:37.628Z,96322.66
2023-08-05T12:23:06.801Z,96302.84
2023-08-05T12:25:34.219Z,96324.34
2023-08-05T12:28:05.939Z,96316.88
2023-08-05T12:30:34.064Z,96302.97
2023-08-05T12:33:01.332Z,96326.16
2023-08-05T12:35:28.259Z,96329.16
2023-08-05T12:37:55.170Z,96321.06
2023-08-05T12:40:21.905Z,96316.34
2023-08-05T12:42:48.790Z,96291.53
2023-08-05T12:45:15.586Z,96316.22
2023-08-05T12:47:42.447Z,96284.50
2023-08-05T12:50:09.889Z,96289.88
2023-08-05T12:52:36.957Z,96299.53
2023-08-05T12:55:04.443Z,96310.34
2023-08-05T12:57:33.393Z,96286.09
2023-08-05T13:00:00.825Z,96295.22
2023-08-05T13:02:27.798Z,96309.38
2023-08-05T13:04:54.705Z,96298.25
2023-08-05T13:07:21.638Z,96313.09
2023-08-05T13:09:48.521Z,96306.84
2023-08-05T13:12:15.971Z,96291.69
2023-08-05T13:14:44.464Z,96286.09
2023-08-05T13:17:11.514Z,96300.75
2023-08-05T13:19:39.010Z,96302.09
2023-08-05T13:22:06.087Z,96293.16
2023-08-05T13:24:34.756Z,96294.84
2023-08-05T13:27:05.471Z,96294.72
2023-08-05T13:29:32.181Z,96276.91
2023-08-05T13:31:59.748Z,96277.63
2023-08-05T13:34:26.418Z,96274.94
2023-08-05T13:36:53.257Z,96256.34
2023-08-05T13:39:20.062Z,96278.34
2023-08-05T13:41:46.796Z,96245.38
2023-08-05T13:44:13.691Z,96254.50
2023-08-05T13:46:40.449Z,96274.00
2023-08-05T13:49:07.615Z,96261.34
2023-08-05T13:51:35.211Z,96255.69
2023-08-05T13:54:02.272Z,96273.31
2023-08-05T13:56:28.956Z,96287.56
2023-08-05T13:58:55.903Z,96261.50
2023-08-05T14:01:22.912Z,96264.09
2023-08-05T14:03:49.823Z,96233.38
2023-08-05T14:06:16.676Z,96254.66
2023-08-05T14:08:49.214Z,96237.56
2023-08-05T14:11:16.944Z,96271.56
2023-08-05T14:13:46.539Z,96240.47
2023-08-05T14:16:13.315Z,96255.97
2023-08-05T14:18:40.078Z,96243.50
2023-08-05T14:21:07.581Z,96237.59
2023-08-05T14:23:34.363Z,96230.38
2023-08-05T14:26:01.371Z,96220.31
2023-08-05T14:28:28.642Z,96226.09
2023-08-05T14:30:55.424Z,96234.94
2023-08-05T14:33:22.314Z,96243.31
2023-08-05T14:35:49.059Z,96241.75
2023-08-05T14:38:15.708Z,96203.03
2023-08-05T14:40:42.587Z,96254.06
2023-08-05T14:43:09.559Z,96241.50
2023-08-05T14:45:40.469Z,96227.53
2023-08-05T14:48:07.644Z,96244.56
2023-08-05T14:50:39.296Z,96251.13
2023-08-05T14:53:06.743Z,96252.72
2023-08-05T14:55:33.590Z,96234.81
2023-08-05T14:58:00.495Z,96253.38
2023-08-05T15:00:28.008Z,96236.59
2023-08-05T15:02:55.552Z,96247.22
2023-08-05T15:05:22.791Z,96229.31
2023-08-05T15:07:49.601Z,96226.41
2023-08-05T15:10:16.477Z,96211.97
2023-08-05T15:12:43.286Z,96236.03
2023-08-05T15:15:10.354Z,96229.56
2023-08-05T15:17:37.081Z,96189.19
2023-08-05T15:20:04.363Z,96208.00
2023-08-05T15:22:31.008Z,96215.72
2023-08-05T15:24:58.936Z,96219.94
2023-08-05T15:27:25.839Z,96187.41
2023-08-05T15:29:59.216Z,96215.16
2023-08-05T15:32:26.914Z,96194.22
2023-08-05T15:34:54.157Z,96228.66
2023-08-05T15:37:20.944Z,96201.69
2023-08-05T15:39:47.612Z,96193.41
2023-08-05T15:42:14.422Z,96229.66
2023-08-05T15:44:41.129Z,96199.31
2023-08-05T15:47:07.861Z,96225.59
2023-08-05T15:49:34.700Z,96224.69
2023-08-05T15:52:01.527Z,96229.16
2023-08-05T15:54:28.203Z,96205.66
2023-08-05T15:56:54.933Z,96226.44
2023-08-05T15:59:21.553Z,96213.13
2023-08-05T16:01:48.232Z,96169.41
2023-08-05T16:04:15.290Z,96172.84
2023-08-05T16:06:44.301Z,96212.22
2023-08-05T16:09:11.420Z,96191.06
2023-08-05T16:11:38.373Z,96221.81
2023-08-05T16:14:05.092Z,96185.94
2023-08-05T16:16:31.922Z,96198.47
2023-08-05T16:18:58.755Z,96182.56
2023-08-05T16:21:26.108Z,96207.22
2023-08-05T16:23:58.757Z,96201.28
2023-08-05T16:26:27.081Z,96195.19
2023-08-05T16:28:54.422Z,96177.53
2023-08-05T16:31:23.712Z,96156.88
2023-08-05T16:33:50.684Z,96192.41
2023-08-05T16:36:17.542Z,96162.28
2023-08-05T16:38:46.751Z,96192.22
2023-08-05T16:41:13.735Z,96160.78
2023-08-05T16:43:44.671Z,96176.94
2023-08-05T16:46:11.719Z,96185.13
2023-08-05T16:48:38.530Z,96188.41
2023-08-05T16:51:06.133Z,96187.88
2023-08-05T16:53:34.391Z,96186.69
2023-08-05T16:56:05.417Z,96174.13
2023-08-05T16:58:32.460Z,96177.50
2023-08-05T17:00:59.250Z,96180.81
2023-08-05T17:03:26.389Z,96194.28
2023-08-05T17:05:53.591Z,96190.59
2023-08-05T17:08:20.937Z,96161.34
2023-08-05T17:10:47.662Z,96160.97
2023-08-05T17:13:14.278Z,96163.81
2023-08-05T17:15:45.362Z,96178.38
2023-08-05T17:18:13.481Z,96185.25
2023-08-05T17:20:40.362Z,96171.91
2023-08-05T17:23:07.009Z,96122.16
2023-08-05T17:25:38.198Z,96159.91
2023-08-05T17:28:04.929Z,96137.13
2023-08-05T17:30:33.501Z,96153.06
2023-08-05T17:33:00.347Z,96154.50
2023-08-05T17:35:29.924Z,96150.00
2023-08-05T17:37:56.794Z,96145.56
2023-08-05T17:40:23.798Z,96132.03
2023-08-05T17:42:50.493Z,96155.31
2023-08-05T17:45:18.928Z,96140.47
2023-08-05T17:47:46.437Z,96118.53
2023-08-05T17:50:13.519Z,96152.09
2023-08-05T17:52:40.502Z,96159.22
2023-08-05T17:55:07.762Z,96156.13
2023-08-05T17:57:34.433Z,96135.78
2023-08-05T18:00:01.318Z,96138.84
2023-08-05T18:02:28.200Z,96130.75
2023-08-05T18:04:55.015Z,96158.75
2023-08-05T18:07:21.705Z,96143.16
2023-08-05T18:09:48.533Z,96155.53
2023-08-05T18:12:15.371Z,96166.94
2023-08-05T18:14:46.275Z,96154.91
2023-08-05T18:17:12.943Z,96129.91
2023-08-05T18:19:39.614Z,96173.63
2023-08-05T18:22:07.231Z,96165.88
2023-08-05T18:24:34.067Z,96182.81
2023-08-05T18:27:00.838Z,96166.34
2023-08-05T18:29:27.498Z,96179.34
2023-08-05T18:31:54.643Z,96185.41
2023-08-05T18:34:22.647Z,96173.53
2023-08-05T18:36:51.284Z,96172.56
2023-08-05T18:39:18.216Z,96176.06
2023-08-05T18:41:49.024Z,96180.09
2023-08-05T18:44:16.522Z,96149.88
2023-08-05T18:46:43.489Z,96185.03
2023-08-05T18:49:10.151Z,96142.94
2023-08-05T18:51:37.225Z,96138.28
2023-08-05T18:54:04.473Z,96155.09
2023-08-05T18:56:31.285Z,96170.91
2023-08-05T18:58:58.079Z,96159.25
2023-08-05T19:01:24.967Z,96134.84
2023-08-05T19:03:51.806Z,96139.16
2023-08-05T19:06:18.676Z,96125.44
2023-08-05T19:08:50.972Z,96153.03
2023-08-05T19:11:31.717Z,96179.81
2023-08-05T19:14:12.511Z,96179.91
2023-08-05T19:16:41.289Z,96121.69
2023-08-05T19:19:13.636Z,96144.47
2023-08-05T19:21:40.477Z,96167.31
2023-08-05T19:24:07.598Z,96164.28
2023-08-05T19:26:40.428Z,96165.06
2023-08-05T19:29:07.824Z,96175.44
2023-08-05T19:31:35.848Z,96139.97
2023-08-05T19:34:02.684Z,96131.47
2023-08-05T19:36:29.311Z,96134.66
2023-08-05T19:38:56.125Z,96180.78
2023-08-05T19:41:23.303Z,96174.19
2023-08-05T19:43:50.003Z,96182.88
2023-08-05T19:46:16.794Z,96145.94
2023-08-05T19:48:46.856Z,96157.00
2023-08-05T19:51:15.066Z,96154.03
2023-08-05T19:53:46.645Z,96183.91
2023-08-05T19:56:14.190Z,96188.25
2023-08-05T19:58:49.544Z,96163.91
2023-08-05T20:01:16.852Z,96192.25
2023-08-05T20:03:43.764Z,96152.50
2023-08-05T20:06:13.440Z,96184.78
2023-08-05T20:08:44.552Z,96186.03
2023-08-05T20:11:12.684Z,96120.59
2023-08-05T20:13:39.515Z,96174.22
2023-08-05T20:16:06.402Z,96179.34
2023-08-05T20:21:17.139Z,96188.88
2023-08-05T20:23:46.781Z,96196.88
2023-08-05T20:26:15.068Z,96185.91
2023-08-05T20:28:46.753Z,96160.72
2023-08-05T20:31:21.216Z,96189.91
2023-08-05T20:33:48.373Z,96192.25
2023-08-05T20:36:15.276Z,96178.88
2023-08-05T20:38:42.355Z,96167.03
2023-08-05T20:41:09.752Z,96186.72
2023-08-05T20:43:36.763Z,96185.94
2023-08-05T20:46:03.729Z,96181.19
2023-08-05T20:48:30.692Z,96182.41
2023-08-05T20:50:58.447Z,96147.72
2023-08-05T20:53:25.163Z,96172.09
2023-08-05T20:55:52.073Z,96155.59
2023-08-05T20:58:18.820Z,96167.38
2023-08-05T21:01:00.933Z,96150.13
2023-08-05T21:03:28.236Z,96133.97
2023-08-05T21:06:02.196Z,96151.34
2023-08-05T21:08:31.772Z,96138.34
2023-08-05T21:11:09.784Z,96186.06
2023-08-05T21:13:40.557Z,96183.31
2023-08-05T21:16:08.560Z,96177.00
2023-08-05T21:18:35.686Z,96181.38
2023-08-05T21:21:02.745Z,96169.50
2023-08-05T21:23:29.567Z,96175.44
2023-08-05T21:25:56.814Z,96130.53
2023-08-05T21:28:23.572Z,96128.94
2023-08-05T21:30:51.745Z,96158.47
2023-08-05T21:33:18.609Z,96158.50
2023-08-05T21:35:45.239Z,96174.72
2023-08-05T21:38:11.938Z,96153.84
2023-08-05T21:40:46.676Z,96167.63
2023-08-05T21:43:14.666Z,96176.75
2023-08-05T21:45:55.361Z,96166.50
2023-08-05T21:48:22.680Z,96174.41
2023-08-05T21:50:50.240Z,96171.66
2023-08-05T21:53:17.405Z,96163.78
2023-08-05T21:55:45.781Z,96169.69
2023-08-05T21:58:12.863Z,96179.19
2023-08-05T22:00:40.089Z,96168.16
2023-08-05T22:03:07.064Z,96161.84
2023-08-05T22:05:34.073Z,96170.91
2023-08-05T22:08:01.023Z,96163.44
2023-08-05T22:10:27.670Z,96169.78
2023-08-05T22:12:54.706Z,96161.13
2023-08-05T22:15:21.641Z,96135.88
2023-08-05T22:17:48.954Z,96147.31
2023-08-05T22:20:16.690Z,96150.06
2023-08-05T22:22:43.570Z,96142.19
2023-08-05T22:25:10.537Z,96138.66
2023-08-05T22:27:37.664Z,96097.28
2023-08-05T22:30:08.432Z,96122.47
2023-08-05T22:32:35.879Z,96103.59
2023-08-05T22:35:03.424Z,96091.78
2023-08-05T22:37:30.627Z,96098.06
2023-08-05T22:40:02.098Z,96114.63
2023-08-05T22:42:28.908Z,96106.34
2023-08-05T22:44:55.803Z,96105.94
2023-08-05T22:47:22.781Z,96104.00
2023-08-05T22:49:49.541Z,96111.47
2023-08-05T22:52:16.242Z,96114.22
2023-08-05T22:54:43.000Z,96095.72
2023-08-05T22:57:09.761Z,96078.75
2023-08-05T22:59:36.450Z,96103.22
2023-08-05T23:02:03.246Z,96087.03
2023-08-05T23:04:29.917Z,96100.06
2023-08-05T23:06:56.916Z,96087.03
2023-08-05T23:09:23.815Z,96096.50
2023-08-05T23:11:52.497Z,96092.97
2023-08-05T23:14:19.940Z,96083.91
2023-08-05T23:16:46.682Z,96073.63
2023-08-05T23:19:14.113Z,96056.28
2023-08-05T23:21:43.951Z,96062.19
2023-08-05T23:24:12.027Z,96058.66
2023-08-05T23:26:39.558Z,96063.38
2023-08-05T23:29:06.701Z,96041.72
2023-08-05T23:31:34.361Z,96067.31
2023-08-05T23:34:01.334Z,96046.81
2023-08-05T23:36:28.744Z,96060.19
2023-08-05T23:38:55.676Z,96069.69
2023-08-05T23:41:22.726Z,96053.91
2023-08-05T23:43:49.648Z,96055.47
2023-08-05T23:46:16.391Z,96049.16
2023-08-05T23:48:43.252Z,96019.63
2023-08-05T23:51:10.070Z,96030.66
2023-08-05T23:53:36.820Z,96007.81
2023-08-05T23:56:03.883Z,96040.50
2023-08-05T23:58:30.797Z,96039.72
